Time;durP1;ratioP1;P1;durP2;ratioP2;P2;SDS_P1;SDS_P2;PMS_P1;PMS_P2;Temp;Humidity;BMP_temperature;BMP_pressure;BME280_temperature;BME280_humidity;BME280_pressure;Samples;Min_cycle;Max_cycle;Signal;HPM_P1;HPM_P2
2022/01/24 00:01:02;;;;;;;4.70;3.42;;;;;;;;;;5047242;28;20705;-77
2022/01/24 00:03:29;;;;;;;5.30;3.20;;;;;;;;;;5050049;28;20608;-77
2022/01/24 00:05:56;;;;;;;4.85;3.80;;;;;;;;;;5048610;28;20238;-76
2022/01/24 00:08:23;;;;;;;5.22;3.67;;;;;;;;;;5051082;28;20201;-76
2022/01/24 00:10:53;;;;;;;5.63;3.55;;;;;;;;;;5050897;28;20206;-77
2022/01/24 00:16:15;;;;;;;4.20;3.15;;;;;;;;;;5024838;28;20203;-78
2022/01/24 00:26:48;;;;;;;7.05;5.18;;;;;;;;;;5046947;28;20213;-76
2022/01/24 00:29:16;;;;;;;5.00;3.80;;;;;;;;;;5051162;28;20195;-77
2022/01/24 00:31:44;;;;;;;4.72;4.25;;;;;;;;;;5048671;28;20282;-76
2022/01/24 00:34:11;;;;;;;4.28;3.28;;;;;;;;;;5038582;28;20237;-77
2022/01/24 00:36:39;;;;;;;6.32;3.50;;;;;;;;;;5035010;28;20659;-76
2022/01/24 00:39:07;;;;;;;3.95;3.47;;;;;;;;;;5030491;28;20256;-76
2022/01/24 00:41:43;;;;;;;3.97;3.58;;;;;;;;;;5050547;28;20209;-76
2022/01/24 00:44:42;;;;;;;5.63;3.60;;;;;;;;;;4993789;28;20216;-77
2022/01/24 00:47:15;;;;;;;4.75;3.30;;;;;;;;;;5008005;28;20230;-78
2022/01/24 00:55:05;;;;;;;4.53;3.65;;;;;;;;;;4991874;28;20694;-76
2022/01/24 00:57:33;;;;;;;5.85;3.45;;;;;;;;;;5001976;28;20658;-78
2022/01/24 01:00:02;;;;;;;4.80;3.45;;;;;;;;;;5008058;28;20219;-77
2022/01/24 01:02:29;;;;;;;3.88;3.42;;;;;;;;;;5023570;28;20191;-76
2022/01/24 01:05:09;;;;;;;4.53;3.30;;;;;;;;;;5048438;28;20214;-78
2022/01/24 01:07:41;;;;;;;3.45;3.15;;;;;;;;;;5047326;28;20213;-77
2022/01/24 01:18:16;;;;;;;4.80;3.35;;;;;;;;;;5031310;28;20210;-76
2022/01/24 01:21:07;;;;;;;4.63;3.65;;;;;;;;;;5039047;28;20219;-77
2022/01/24 01:23:37;;;;;;;3.70;3.35;;;;;;;;;;5048484;28;20754;-76
2022/01/24 01:26:08;;;;;;;5.25;3.88;;;;;;;;;;5053644;28;20325;-78
2022/01/24 01:28:37;;;;;;;5.30;4.00;;;;;;;;;;5053050;28;20210;-76
2022/01/24 01:31:28;;;;;;;4.60;3.75;;;;;;;;;;5041403;28;20186;-76
2022/01/24 01:34:06;;;;;;;3.42;3.03;;;;;;;;;;5000701;28;20211;-76
2022/01/24 01:39:38;;;;;;;3.55;3.25;;;;;;;;;;5008230;28;20196;-78
2022/01/24 01:53:03;;;;;;;3.63;3.00;;;;;;;;;;4973120;28;20205;-76
2022/01/24 01:55:38;;;;;;;3.92;3.33;;;;;;;;;;4971411;28;20312;-76
2022/01/24 01:58:05;;;;;;;4.15;2.80;;;;;;;;;;4980198;28;20662;-77
2022/01/24 02:00:33;;;;;;;4.53;3.05;;;;;;;;;;4990551;28;20208;-76
2022/01/24 02:03:00;;;;;;;2.92;2.70;;;;;;;;;;4991664;28;20207;-76
2022/01/24 02:05:28;;;;;;;5.65;3.75;;;;;;;;;;5023242;28;20227;-76
2022/01/24 02:07:55;;;;;;;6.32;3.30;;;;;;;;;;5028443;28;20311;-77
2022/01/24 02:10:24;;;;;;;3.17;2.83;;;;;;;;;;5007825;28;20203;-77
2022/01/24 02:12:53;;;;;;;3.40;2.97;;;;;;;;;;5001417;28;20200;-76
2022/01/24 02:15:28;;;;;;;6.05;3.30;;;;;;;;;;5027028;28;20254;-76
2022/01/24 02:18:05;;;;;;;4.32;3.40;;;;;;;;;;5017989;28;20202;-77
2022/01/24 02:21:04;;;;;;;4.15;3.10;;;;;;;;;;5056222;28;20213;-77
2022/01/24 02:23:38;;;;;;;4.07;2.80;;;;;;;;;;5033867;28;20245;-76
2022/01/24 02:26:22;;;;;;;3.10;2.65;;;;;;;;;;5039754;28;20260;-76
2022/01/24 02:28:59;;;;;;;3.10;2.80;;;;;;;;;;5039120;28;20550;-76
2022/01/24 02:31:40;;;;;;;4.07;2.53;;;;;;;;;;5024573;28;20620;-76
2022/01/24 02:34:19;;;;;;;3.05;2.75;;;;;;;;;;5035045;28;20226;-77
2022/01/24 02:36:46;;;;;;;12.15;2.97;;;;;;;;;;5033456;28;20428;-76
2022/01/24 02:39:38;;;;;;;2.63;2.42;;;;;;;;;;5045043;28;20648;-77
2022/01/24 02:49:54;;;;;;;3.33;3.03;;;;;;;;;;5059282;28;20207;-77
2022/01/24 02:52:25;;;;;;;3.00;2.67;;;;;;;;;;5059398;28;20453;-77
2022/01/24 02:54:53;;;;;;;2.90;2.60;;;;;;;;;;5051871;28;20214;-76
2022/01/24 02:57:21;;;;;;;3.10;2.78;;;;;;;;;;5052150;28;20241;-76
2022/01/24 02:59:48;;;;;;;3.30;2.45;;;;;;;;;;5051514;28;20684;-76
2022/01/24 03:02:15;;;;;;;2.88;2.58;;;;;;;;;;5055371;28;20194;-77
2022/01/24 03:04:43;;;;;;;3.47;2.75;;;;;;;;;;5072697;28;20220;-76
2022/01/24 03:07:10;;;;;;;3.50;3.10;;;;;;;;;;5073654;28;20209;-77
2022/01/24 03:09:37;;;;;;;3.90;2.70;;;;;;;;;;5069146;28;20657;-76
2022/01/24 03:12:08;;;;;;;3.83;2.47;;;;;;;;;;5063623;28;20190;-76
2022/01/24 03:14:36;;;;;;;3.50;2.90;;;;;;;;;;5059566;28;21132;-78
2022/01/24 03:17:05;;;;;;;3.30;2.97;;;;;;;;;;5070040;28;20209;-76
2022/01/24 03:19:32;;;;;;;4.78;2.75;;;;;;;;;;5066193;28;20521;-77
2022/01/24 03:22:02;;;;;;;2.92;2.20;;;;;;;;;;5071093;28;20217;-76
2022/01/24 03:24:29;;;;;;;3.00;2.70;;;;;;;;;;5066659;28;20229;-77
2022/01/24 03:26:57;;;;;;;4.00;3.38;;;;;;;;;;5037980;28;20195;-76
2022/01/24 03:29:25;;;;;;;4.03;3.30;;;;;;;;;;5043746;28;20665;-76
2022/01/24 03:31:53;;;;;;;3.00;2.70;;;;;;;;;;5038009;28;20209;-77
2022/01/24 03:34:20;;;;;;;3.35;2.90;;;;;;;;;;5048624;28;20211;-77
2022/01/24 03:36:47;;;;;;;3.95;3.22;;;;;;;;;;5049870;28;20199;-76
2022/01/24 03:39:14;;;;;;;3.00;2.67;;;;;;;;;;5046570;28;20259;-76
2022/01/24 03:41:41;;;;;;;2.65;2.42;;;;;;;;;;5049622;28;20235;-78
2022/01/24 03:44:11;;;;;;;4.15;2.80;;;;;;;;;;5033630;28;20215;-76
2022/01/24 03:46:59;;;;;;;3.38;2.40;;;;;;;;;;5051126;28;20199;-76
2022/01/24 03:52:08;;;;;;;3.20;2.70;;;;;;;;;;5025623;28;20213;-76
2022/01/24 03:54:35;;;;;;;3.28;2.92;;;;;;;;;;5037990;28;20222;-77
2022/01/24 03:57:02;;;;;;;3.15;2.70;;;;;;;;;;5031419;28;20199;-77
2022/01/24 03:59:31;;;;;;;4.82;3.30;;;;;;;;;;5031991;28;20198;-76
2022/01/24 04:02:00;;;;;;;2.97;2.70;;;;;;;;;;5036986;28;20292;-76
2022/01/24 04:07:09;;;;;;;3.40;3.10;;;;;;;;;;5008929;28;20254;-78
2022/01/24 04:09:38;;;;;;;3.30;2.97;;;;;;;;;;5005331;28;20192;-76
2022/01/24 04:12:07;;;;;;;3.40;2.80;;;;;;;;;;5002973;28;20303;-77
2022/01/24 04:14:39;;;;;;;5.95;2.80;;;;;;;;;;4987533;28;20275;-77
2022/01/24 04:17:21;;;;;;;3.08;2.63;;;;;;;;;;4988487;28;20278;-77
2022/01/24 04:22:34;;;;;;;3.60;3.30;;;;;;;;;;4986783;28;20516;-76
2022/01/24 04:25:04;;;;;;;4.35;3.33;;;;;;;;;;5009920;28;20227;-77
2022/01/24 04:27:31;;;;;;;4.80;3.58;;;;;;;;;;5025470;28;20649;-76
2022/01/24 04:29:59;;;;;;;3.53;3.10;;;;;;;;;;5022448;28;20191;-76
2022/01/24 04:32:27;;;;;;;3.55;3.10;;;;;;;;;;5025511;28;20604;-77
2022/01/24 04:34:54;;;;;;;4.03;2.83;;;;;;;;;;5024986;28;20283;-77
2022/01/24 04:39:48;;;;;;;5.70;3.47;;;;;;;;;;5044931;28;20419;-77
2022/01/24 04:42:23;;;;;;;3.33;3.03;;;;;;;;;;5043945;28;20490;-77
2022/01/24 04:45:08;;;;;;;3.05;2.78;;;;;;;;;;5035979;28;20714;-77
2022/01/24 04:50:19;;;;;;;4.00;3.60;;;;;;;;;;5038494;28;20234;-76
2022/01/24 04:50:41;;;;;;;3.65;2.88;;;;;;;;;;5039369;28;20206;-77
2022/01/24 04:53:15;;;;;;;3.67;3.38;;;;;;;;;;5050695;28;20199;-76
2022/01/24 04:55:42;;;;;;;3.00;2.72;;;;;;;;;;5045971;28;20214;-77
2022/01/24 04:58:09;;;;;;;5.25;3.35;;;;;;;;;;5050045;28;20285;-76
2022/01/24 05:00:37;;;;;;;3.20;2.78;;;;;;;;;;5046335;28;20226;-76
2022/01/24 05:03:05;;;;;;;3.80;3.45;;;;;;;;;;5055616;28;20711;-76
2022/01/24 05:05:32;;;;;;;5.45;3.53;;;;;;;;;;5054462;28;20222;-77
2022/01/24 05:08:04;;;;;;;3.72;3.42;;;;;;;;;;5043629;28;20300;-76
2022/01/24 05:10:37;;;;;;;4.75;3.78;;;;;;;;;;5041490;28;20208;-76
2022/01/24 05:23:49;;;;;;;3.75;3.45;;;;;;;;;;5044726;28;20687;-76
2022/01/24 05:26:17;;;;;;;3.85;3.45;;;;;;;;;;5057852;28;20226;-76
2022/01/24 05:28:44;;;;;;;3.92;2.88;;;;;;;;;;5062944;28;20312;-76
2022/01/24 05:31:11;;;;;;;3.25;2.95;;;;;;;;;;5070451;28;20216;-76
2022/01/24 05:33:39;;;;;;;3.45;3.05;;;;;;;;;;5069676;28;20193;-77
2022/01/24 05:36:07;;;;;;;4.60;3.38;;;;;;;;;;5073770;28;20202;-77
2022/01/24 05:38:34;;;;;;;3.65;3.35;;;;;;;;;;5072119;28;20190;-76
2022/01/24 05:41:01;;;;;;;4.13;3.72;;;;;;;;;;5069025;28;20217;-77
2022/01/24 05:43:28;;;;;;;3.83;3.42;;;;;;;;;;5060786;28;20198;-77
2022/01/24 05:45:55;;;;;;;3.65;3.22;;;;;;;;;;5058128;28;20219;-77
2022/01/24 05:48:22;;;;;;;5.65;3.85;;;;;;;;;;5052561;28;20199;-77
2022/01/24 05:50:51;;;;;;;5.28;3.40;;;;;;;;;;5052578;28;20190;-76
2022/01/24 05:55:44;;;;;;;4.80;3.97;;;;;;;;;;5072306;28;20206;-76
2022/01/24 05:58:11;;;;;;;4.40;3.53;;;;;;;;;;5063530;28;20488;-76
2022/01/24 06:00:38;;;;;;;5.50;3.50;;;;;;;;;;5060769;28;20296;-76
2022/01/24 06:03:06;;;;;;;3.90;3.50;;;;;;;;;;5045231;28;20545;-76
2022/01/24 06:08:00;;;;;;;5.97;4.13;;;;;;;;;;5069650;28;20190;-77
2022/01/24 06:10:27;;;;;;;5.55;3.60;;;;;;;;;;5070800;28;20463;-76
2022/01/24 06:12:54;;;;;;;4.82;3.92;;;;;;;;;;5072610;28;20194;-76
2022/01/24 06:15:22;;;;;;;5.88;3.90;;;;;;;;;;5073130;28;20225;-75
2022/01/24 06:17:49;;;;;;;5.20;3.50;;;;;;;;;;5059124;28;20202;-76
2022/01/24 06:20:16;;;;;;;5.13;3.67;;;;;;;;;;5058220;28;20197;-76
2022/01/24 06:22:43;;;;;;;5.35;3.80;;;;;;;;;;5053018;28;20222;-77
2022/01/24 06:25:13;;;;;;;3.40;3.10;;;;;;;;;;5054431;28;20232;-77
2022/01/24 06:27:41;;;;;;;3.53;3.22;;;;;;;;;;5060183;28;20284;-77
2022/01/24 06:30:08;;;;;;;5.35;3.80;;;;;;;;;;5066148;28;20194;-76
2022/01/24 06:32:36;;;;;;;4.45;3.55;;;;;;;;;;5074892;28;20221;-76
2022/01/24 06:35:03;;;;;;;4.38;3.97;;;;;;;;;;5059124;28;20221;-76
2022/01/24 06:37:30;;;;;;;5.95;4.00;;;;;;;;;;5064428;28;20558;-76
2022/01/24 06:39:58;;;;;;;4.93;4.30;;;;;;;;;;5064844;28;20694;-76
2022/01/24 06:42:26;;;;;;;4.60;4.20;;;;;;;;;;5067977;28;20230;-77
2022/01/24 06:44:54;;;;;;;5.07;3.90;;;;;;;;;;5071778;28;20218;-76
2022/01/24 06:47:22;;;;;;;4.18;3.67;;;;;;;;;;5070918;28;20528;-76
2022/01/24 06:49:50;;;;;;;4.65;4.25;;;;;;;;;;5069607;28;20206;-76
2022/01/24 06:52:17;;;;;;;4.72;4.10;;;;;;;;;;5059810;28;20193;-76
2022/01/24 06:54:45;;;;;;;8.98;5.78;;;;;;;;;;5063593;28;20525;-76
2022/01/24 06:57:13;;;;;;;7.03;3.95;;;;;;;;;;5070721;28;20535;-77
2022/01/24 06:59:42;;;;;;;5.38;4.30;;;;;;;;;;5071000;28;20209;-76
2022/01/24 07:02:10;;;;;;;4.28;3.88;;;;;;;;;;5070052;28;20213;-77
2022/01/24 07:04:39;;;;;;;5.38;4.47;;;;;;;;;;5069573;28;20753;-75
2022/01/24 07:07:07;;;;;;;4.45;4.05;;;;;;;;;;5053699;28;20293;-77
2022/01/24 07:09:34;;;;;;;4.72;4.32;;;;;;;;;;5071628;28;20194;-77
2022/01/24 07:12:01;;;;;;;4.50;4.07;;;;;;;;;;5073163;28;20202;-76
2022/01/24 07:14:28;;;;;;;5.75;4.80;;;;;;;;;;5059628;28;20206;-76
2022/01/24 07:19:38;;;;;;;8.00;5.18;;;;;;;;;;5053342;28;20206;-76
2022/01/24 07:22:06;;;;;;;7.60;5.60;;;;;;;;;;5056402;28;20252;-76
2022/01/24 07:24:36;;;;;;;5.22;4.80;;;;;;;;;;5034154;28;20221;-76
2022/01/24 07:27:04;;;;;;;7.50;5.35;;;;;;;;;;5063766;28;20190;-77
2022/01/24 07:29:32;;;;;;;7.30;6.15;;;;;;;;;;5038449;28;20720;-76
2022/01/24 07:32:01;;;;;;;6.20;4.82;;;;;;;;;;5066215;28;20202;-77
2022/01/24 07:34:29;;;;;;;6.38;5.07;;;;;;;;;;5069640;28;20223;-77
2022/01/24 07:36:57;;;;;;;6.80;5.32;;;;;;;;;;5038985;28;20208;-76
2022/01/24 07:39:24;;;;;;;7.50;5.10;;;;;;;;;;5059514;28;20267;-77
2022/01/24 07:41:52;;;;;;;5.60;5.10;;;;;;;;;;5045548;28;20209;-75
2022/01/24 07:44:21;;;;;;;6.28;5.25;;;;;;;;;;5067410;28;20236;-77
2022/01/24 07:46:48;;;;;;;5.03;4.63;;;;;;;;;;5057041;28;20248;-78
2022/01/24 07:49:16;;;;;;;5.75;4.32;;;;;;;;;;5062143;28;20790;-77
2022/01/24 07:51:44;;;;;;;5.63;4.63;;;;;;;;;;5059014;28;20202;-77
2022/01/24 07:54:11;;;;;;;6.03;5.40;;;;;;;;;;5057249;28;20228;-77
2022/01/24 07:56:39;;;;;;;6.22;4.63;;;;;;;;;;5052793;28;20194;-78
2022/01/24 07:59:06;;;;;;;5.97;4.88;;;;;;;;;;5051933;28;20210;-79
2022/01/24 08:01:33;;;;;;;8.20;5.05;;;;;;;;;;5060407;28;20575;-77
2022/01/24 08:04:01;;;;;;;6.45;5.80;;;;;;;;;;5064243;28;20230;-77
2022/01/24 08:06:29;;;;;;;9.48;4.63;;;;;;;;;;5057267;28;20198;-76
2022/01/24 08:08:56;;;;;;;6.35;5.53;;;;;;;;;;5055763;28;21523;-76
2022/01/24 08:11:24;;;;;;;8.63;5.00;;;;;;;;;;5059675;28;20198;-76
2022/01/24 08:13:54;;;;;;;5.28;4.70;;;;;;;;;;5069039;28;20208;-76
2022/01/24 08:16:21;;;;;;;10.05;5.60;;;;;;;;;;5067311;28;20263;-76
2022/01/24 08:18:51;;;;;;;7.00;5.60;;;;;;;;;;5069718;28;20190;-75
2022/01/24 08:21:18;;;;;;;5.35;4.75;;;;;;;;;;5061155;28;20194;-76
2022/01/24 08:23:47;;;;;;;6.50;5.43;;;;;;;;;;5071009;28;20213;-76
2022/01/24 08:26:14;;;;;;;6.15;5.00;;;;;;;;;;5057393;28;20222;-76
2022/01/24 08:28:41;;;;;;;6.20;5.60;;;;;;;;;;5058009;28;20202;-76
2022/01/24 08:31:09;;;;;;;5.65;5.05;;;;;;;;;;5060331;28;21067;-76
2022/01/24 08:33:36;;;;;;;5.55;5.05;;;;;;;;;;5072277;28;20618;-76
2022/01/24 08:36:03;;;;;;;6.60;5.28;;;;;;;;;;5072455;28;20194;-78
2022/01/24 08:38:34;;;;;;;5.75;5.25;;;;;;;;;;5073142;28;20202;-77
2022/01/24 08:41:08;;;;;;;5.65;5.05;;;;;;;;;;5067667;28;20232;-78
2022/01/24 08:43:40;;;;;;;5.65;5.20;;;;;;;;;;5056280;28;20209;-76
2022/01/24 08:46:07;;;;;;;5.93;4.93;;;;;;;;;;5074615;28;20206;-75
2022/01/24 08:48:35;;;;;;;6.93;5.70;;;;;;;;;;5066168;28;20194;-76
2022/01/24 08:51:02;;;;;;;6.82;5.55;;;;;;;;;;5061559;28;20560;-77
2022/01/24 08:53:31;;;;;;;7.63;6.40;;;;;;;;;;5064433;28;20190;-77
2022/01/24 08:55:58;;;;;;;6.22;5.63;;;;;;;;;;5042672;28;20260;-76
2022/01/24 08:58:27;;;;;;;5.40;4.90;;;;;;;;;;5054295;28;20492;-76
2022/01/24 09:00:54;;;;;;;6.65;5.65;;;;;;;;;;5054415;28;20617;-78
2022/01/24 09:03:22;;;;;;;9.43;5.70;;;;;;;;;;5065859;28;20225;-76
2022/01/24 09:05:52;;;;;;;4.95;4.45;;;;;;;;;;5061724;28;20218;-76
2022/01/24 09:08:19;;;;;;;6.00;5.50;;;;;;;;;;5060959;28;20206;-75
2022/01/24 09:10:47;;;;;;;9.20;5.35;;;;;;;;;;5057251;28;20214;-75
2022/01/24 09:13:15;;;;;;;6.22;5.65;;;;;;;;;;5063964;28;20323;-77
2022/01/24 09:15:43;;;;;;;7.47;5.25;;;;;;;;;;5053463;28;20848;-78
2022/01/24 09:18:10;;;;;;;6.13;5.55;;;;;;;;;;5060399;28;20208;-77
2022/01/24 09:20:39;;;;;;;6.00;5.40;;;;;;;;;;5067599;28;20531;-76
2022/01/24 09:23:06;;;;;;;5.50;4.93;;;;;;;;;;5065915;28;20214;-77
2022/01/24 09:25:33;;;;;;;5.88;5.30;;;;;;;;;;5056959;28;20218;-77
2022/01/24 09:28:00;;;;;;;5.20;4.80;;;;;;;;;;5053449;28;20195;-77
2022/01/24 09:30:28;;;;;;;5.50;4.45;;;;;;;;;;5041459;28;20574;-77
2022/01/24 09:32:57;;;;;;;5.50;4.90;;;;;;;;;;5022479;28;20198;-77
2022/01/24 09:35:27;;;;;;;5.45;4.95;;;;;;;;;;5044823;28;20218;-76
2022/01/24 09:37:54;;;;;;;4.93;4.53;;;;;;;;;;5051780;28;20289;-77
2022/01/24 09:40:22;;;;;;;4.85;4.32;;;;;;;;;;5051772;28;20629;-76
2022/01/24 09:42:50;;;;;;;5.72;5.20;;;;;;;;;;5032353;28;20246;-77
2022/01/24 09:45:18;;;;;;;6.18;5.10;;;;;;;;;;5027995;28;20219;-76
2022/01/24 09:47:45;;;;;;;5.00;4.60;;;;;;;;;;5035696;28;20207;-75
2022/01/24 09:50:15;;;;;;;5.85;5.20;;;;;;;;;;5055672;28;20234;-76
2022/01/24 09:52:44;;;;;;;5.82;5.30;;;;;;;;;;5041115;28;20198;-77
2022/01/24 09:55:11;;;;;;;5.78;5.22;;;;;;;;;;5021336;28;20322;-77
2022/01/24 09:57:41;;;;;;;5.50;5.00;;;;;;;;;;5014028;28;20211;-76
2022/01/24 10:00:10;;;;;;;4.93;4.53;;;;;;;;;;5041663;28;20202;-77
2022/01/24 10:02:37;;;;;;;5.80;4.60;;;;;;;;;;5050957;28;20223;-78
2022/01/24 10:05:19;;;;;;;7.55;5.13;;;;;;;;;;5093189;23;20227;-77
2022/01/24 10:07:55;;;;;;;7.20;4.57;;;;;;;;;;5023730;28;20735;-78
2022/01/24 10:10:31;;;;;;;6.10;4.80;;;;;;;;;;5019402;28;20302;-76
2022/01/24 10:18:51;;;;;;;4.53;4.13;;;;;;;;;;5038132;28;20253;-77
2022/01/24 10:21:18;;;;;;;4.65;3.85;;;;;;;;;;5032321;28;20219;-77
2022/01/24 10:23:47;;;;;;;5.20;4.70;;;;;;;;;;5037729;28;20222;-77
2022/01/24 10:26:15;;;;;;;10.07;4.95;;;;;;;;;;5040881;28;20195;-76
2022/01/24 10:28:44;;;;;;;4.95;4.45;;;;;;;;;;5037691;28;20205;-79
2022/01/24 10:31:12;;;;;;;4.80;4.40;;;;;;;;;;5049663;28;20566;-75
2022/01/24 10:33:55;;;;;;;5.70;4.30;;;;;;;;;;5025254;28;20192;-76
2022/01/24 10:36:34;;;;;;;4.97;4.20;;;;;;;;;;5024569;28;20195;-79
2022/01/24 10:39:14;;;;;;;5.50;4.50;;;;;;;;;;5034933;28;20226;-76
2022/01/24 10:41:55;;;;;;;5.93;4.45;;;;;;;;;;5033587;28;20194;-77
2022/01/24 10:44:31;;;;;;;5.20;4.40;;;;;;;;;;5037998;28;20303;-76
2022/01/24 10:47:14;;;;;;;5.53;4.93;;;;;;;;;;5022883;28;20550;-77
2022/01/24 10:49:41;;;;;;;9.52;4.53;;;;;;;;;;5016804;28;20191;-76
2022/01/24 10:52:10;;;;;;;7.15;5.35;;;;;;;;;;5013696;28;20187;-77
2022/01/24 10:54:38;;;;;;;4.97;4.55;;;;;;;;;;5038384;28;20202;-76
2022/01/24 10:57:06;;;;;;;6.10;4.43;;;;;;;;;;5041214;28;20282;-76
2022/01/24 10:59:35;;;;;;;5.45;4.90;;;;;;;;;;5051510;28;20209;-76
2022/01/24 11:02:03;;;;;;;5.20;4.70;;;;;;;;;;5036992;28;20195;-77
2022/01/24 11:04:32;;;;;;;6.28;4.90;;;;;;;;;;5043001;28;20234;-76
2022/01/24 11:07:01;;;;;;;5.05;4.55;;;;;;;;;;5048619;28;20199;-76
2022/01/24 11:09:29;;;;;;;5.90;4.85;;;;;;;;;;5033500;28;20211;-76
2022/01/24 11:11:59;;;;;;;5.30;4.80;;;;;;;;;;5029840;28;20199;-77
2022/01/24 11:14:27;;;;;;;5.32;4.90;;;;;;;;;;5035203;28;20702;-76
2022/01/24 11:16:56;;;;;;;5.63;5.13;;;;;;;;;;5034309;28;20196;-77
2022/01/24 11:19:28;;;;;;;5.07;4.65;;;;;;;;;;5034182;28;20287;-77
2022/01/24 11:21:56;;;;;;;4.95;4.35;;;;;;;;;;5020156;28;20195;-78
2022/01/24 11:24:29;;;;;;;5.15;4.75;;;;;;;;;;5041449;28;20662;-76
2022/01/24 11:26:58;;;;;;;5.53;5.03;;;;;;;;;;5034029;28;20191;-77
2022/01/24 11:29:26;;;;;;;6.25;5.22;;;;;;;;;;5034227;28;20201;-75
2022/01/24 11:31:58;;;;;;;6.45;4.72;;;;;;;;;;5041753;28;20198;-76
2022/01/24 11:34:30;;;;;;;6.82;5.35;;;;;;;;;;5049563;28;20223;-78
2022/01/24 11:36:58;;;;;;;5.72;5.15;;;;;;;;;;5043337;28;20675;-76
2022/01/24 11:39:25;;;;;;;5.30;4.35;;;;;;;;;;5034464;28;20241;-75
2022/01/24 11:41:52;;;;;;;5.47;4.72;;;;;;;;;;5037065;28;20191;-76
2022/01/24 11:44:22;;;;;;;7.43;4.43;;;;;;;;;;5049557;28;20225;-77
2022/01/24 11:46:52;;;;;;;5.40;4.60;;;;;;;;;;5037275;28;20213;-76
2022/01/24 11:49:20;;;;;;;5.10;4.47;;;;;;;;;;5032028;28;20267;-77
2022/01/24 11:51:49;;;;;;;5.13;4.50;;;;;;;;;;5045818;28;21230;-76
2022/01/24 11:54:42;;;;;;;4.30;3.72;;;;;;;;;;5040382;28;20215;-77
2022/01/24 11:57:18;;;;;;;3.88;3.45;;;;;;;;;;5018743;28;20195;-80
2022/01/24 11:59:47;;;;;;;4.07;3.40;;;;;;;;;;5031883;28;20201;-76
2022/01/24 12:02:16;;;;;;;3.75;3.45;;;;;;;;;;5035408;28;20202;-76
2022/01/24 12:04:51;;;;;;;4.93;4.05;;;;;;;;;;5034293;28;20700;-76
2022/01/24 12:07:19;;;;;;;3.70;3.30;;;;;;;;;;5030398;28;20198;-77
2022/01/24 12:09:47;;;;;;;4.00;3.60;;;;;;;;;;5045961;28;20286;-77
2022/01/24 12:12:34;;;;;;;7.65;4.43;;;;;;;;;;5017477;28;21089;-78
2022/01/24 12:15:03;;;;;;;5.15;3.97;;;;;;;;;;5022497;28;20215;-80
2022/01/24 12:17:45;;;;;;;4.35;3.95;;;;;;;;;;5049451;28;20362;-76
2022/01/24 12:20:28;;;;;;;5.45;4.00;;;;;;;;;;5025538;28;20199;-79
2022/01/24 12:22:55;;;;;;;4.63;4.20;;;;;;;;;;5034131;28;20221;-78
2022/01/24 12:25:48;;;;;;;4.10;3.70;;;;;;;;;;5033435;28;20214;-76
2022/01/24 12:28:17;;;;;;;4.00;3.70;;;;;;;;;;5045406;28;20607;-77
2022/01/24 12:30:59;;;;;;;4.13;3.83;;;;;;;;;;5049346;28;20193;-76
2022/01/24 12:33:31;;;;;;;4.75;4.10;;;;;;;;;;5013808;28;20207;-75
2022/01/24 12:35:58;;;;;;;4.68;4.28;;;;;;;;;;5029715;28;20557;-76
2022/01/24 12:38:25;;;;;;;7.78;4.35;;;;;;;;;;5031227;28;20203;-75
2022/01/24 12:41:07;;;;;;;5.35;4.47;;;;;;;;;;5033509;28;20195;-75
2022/01/24 12:43:51;;;;;;;7.43;5.43;;;;;;;;;;5017946;28;20214;-74
2022/01/24 12:46:21;;;;;;;6.70;4.90;;;;;;;;;;5034374;28;20281;-75
2022/01/24 12:48:49;;;;;;;4.70;4.13;;;;;;;;;;5042882;28;20194;-77
2022/01/24 12:51:17;;;;;;;5.32;4.45;;;;;;;;;;5047040;28;20194;-77
2022/01/24 12:53:44;;;;;;;4.93;4.53;;;;;;;;;;5047794;28;20233;-76
2022/01/24 12:56:13;;;;;;;6.93;4.50;;;;;;;;;;5038943;28;20225;-75
2022/01/24 12:58:41;;;;;;;4.70;4.20;;;;;;;;;;5035914;28;20219;-75
2022/01/24 13:01:21;;;;;;;5.03;4.10;;;;;;;;;;5032699;28;20585;-76
2022/01/24 13:03:52;;;;;;;4.32;3.92;;;;;;;;;;5036270;28;20245;-76
2022/01/24 13:06:20;;;;;;;4.30;3.92;;;;;;;;;;5022877;28;20191;-74
2022/01/24 13:08:54;;;;;;;4.40;4.00;;;;;;;;;;5030492;28;20294;-75
2022/01/24 13:11:22;;;;;;;4.57;4.13;;;;;;;;;;5012125;28;20547;-76
2022/01/24 13:14:06;;;;;;;4.47;4.07;;;;;;;;;;5033027;28;20285;-76
2022/01/24 13:22:16;;;;;;;5.20;4.70;;;;;;;;;;5032978;28;20199;-76
2022/01/24 13:24:58;;;;;;;5.32;4.43;;;;;;;;;;5040422;28;20244;-77
2022/01/24 13:27:34;;;;;;;6.35;4.40;;;;;;;;;;5030020;28;20196;-76
2022/01/24 13:30:01;;;;;;;5.88;4.13;;;;;;;;;;5035892;28;20202;-77
2022/01/24 13:32:43;;;;;;;5.45;4.95;;;;;;;;;;5037913;28;20305;-76
2022/01/24 13:35:16;;;;;;;5.10;4.70;;;;;;;;;;5032932;28;20220;-77
2022/01/24 13:37:44;;;;;;;4.90;4.50;;;;;;;;;;5048683;28;20190;-76
2022/01/24 13:40:11;;;;;;;5.63;5.13;;;;;;;;;;5037863;28;20207;-77
2022/01/24 13:42:39;;;;;;;7.15;5.30;;;;;;;;;;5034418;28;20191;-75
2022/01/24 13:45:07;;;;;;;4.93;4.43;;;;;;;;;;5046268;28;20227;-79
2022/01/24 13:47:34;;;;;;;4.75;4.35;;;;;;;;;;5046022;28;20529;-78
2022/01/24 13:50:01;;;;;;;4.75;4.28;;;;;;;;;;5034824;28;20196;-79
2022/01/24 13:52:30;;;;;;;4.78;4.38;;;;;;;;;;5044462;28;21861;-76
2022/01/24 13:55:12;;;;;;;5.20;4.72;;;;;;;;;;5036236;28;20223;-76
2022/01/24 13:57:45;;;;;;;5.80;4.78;;;;;;;;;;5016392;28;20195;-76
2022/01/24 14:00:15;;;;;;;6.00;4.88;;;;;;;;;;5051879;28;20603;-78
2022/01/24 14:02:42;;;;;;;6.85;5.03;;;;;;;;;;5034924;28;20222;-77
2022/01/24 14:05:09;;;;;;;5.47;4.63;;;;;;;;;;5032529;28;20642;-77
2022/01/24 14:07:41;;;;;;;5.75;5.20;;;;;;;;;;5032336;28;20190;-80
2022/01/24 14:10:11;;;;;;;5.57;5.03;;;;;;;;;;5036503;28;20192;-77
2022/01/24 14:12:55;;;;;;;5.20;4.65;;;;;;;;;;5033792;28;20196;-76
2022/01/24 14:15:27;;;;;;;5.63;5.13;;;;;;;;;;5023657;28;20219;-76
2022/01/24 14:20:43;;;;;;;6.22;5.22;;;;;;;;;;5033474;28;20218;-78
2022/01/24 14:23:22;;;;;;;5.72;5.20;;;;;;;;;;5040349;28;20603;-76
2022/01/24 14:25:49;;;;;;;6.38;5.78;;;;;;;;;;5040853;28;20211;-78
2022/01/24 14:28:18;;;;;;;7.47;5.45;;;;;;;;;;5032775;28;20191;-77
2022/01/24 14:30:46;;;;;;;7.53;4.90;;;;;;;;;;5037070;28;20195;-77
2022/01/24 14:33:15;;;;;;;7.88;5.50;;;;;;;;;;5036513;28;20610;-77
2022/01/24 14:35:50;;;;;;;6.75;5.25;;;;;;;;;;5037639;28;20226;-77
2022/01/24 14:38:27;;;;;;;8.30;5.65;;;;;;;;;;5014032;28;20191;-77
2022/01/24 14:41:00;;;;;;;8.40;5.82;;;;;;;;;;5042803;28;20195;-75
2022/01/24 14:46:10;;;;;;;6.50;5.82;;;;;;;;;;5030894;28;20287;-76
2022/01/24 14:48:52;;;;;;;6.53;5.32;;;;;;;;;;5027135;28;20206;-75
2022/01/24 14:51:22;;;;;;;8.02;4.85;;;;;;;;;;5021199;28;20215;-75
2022/01/24 14:53:50;;;;;;;6.25;5.60;;;;;;;;;;5019083;28;20226;-78
2022/01/24 14:56:18;;;;;;;5.90;5.30;;;;;;;;;;5037028;28;20203;-75
2022/01/24 14:58:45;;;;;;;7.80;5.35;;;;;;;;;;5034165;28;20201;-75
2022/01/24 15:01:13;;;;;;;5.60;4.70;;;;;;;;;;5024078;28;20190;-74
2022/01/24 15:03:41;;;;;;;9.70;6.20;;;;;;;;;;5012457;28;20771;-75
2022/01/24 15:06:09;;;;;;;9.52;5.85;;;;;;;;;;5034750;28;20226;-75
2022/01/24 15:08:36;;;;;;;8.43;6.20;;;;;;;;;;5054693;28;20210;-76
2022/01/24 15:11:04;;;;;;;8.02;5.70;;;;;;;;;;5062459;28;20672;-76
2022/01/24 15:13:39;;;;;;;8.52;5.63;;;;;;;;;;5053510;28;20224;-75
2022/01/24 15:16:16;;;;;;;6.38;5.38;;;;;;;;;;5050736;28;20248;-75
2022/01/24 15:26:47;;;;;;;7.28;6.00;;;;;;;;;;5040278;28;20667;-76
2022/01/24 15:29:17;;;;;;;10.25;6.55;;;;;;;;;;5062058;28;20198;-75
2022/01/24 15:31:44;;;;;;;10.35;7.68;;;;;;;;;;5062935;28;20222;-75
2022/01/24 15:34:13;;;;;;;5.20;4.70;;;;;;;;;;5054565;28;20210;-75
2022/01/24 15:36:40;;;;;;;5.85;5.00;;;;;;;;;;5050478;28;20198;-76
2022/01/24 15:39:08;;;;;;;8.65;5.70;;;;;;;;;;5060748;28;20217;-76
2022/01/24 15:41:46;;;;;;;6.88;6.13;;;;;;;;;;5057211;28;20209;-76
2022/01/24 15:44:33;;;;;;;5.93;5.38;;;;;;;;;;5051918;28;20224;-76
2022/01/24 15:47:17;;;;;;;7.10;6.00;;;;;;;;;;5061246;28;20191;-77
2022/01/24 15:49:45;;;;;;;6.18;5.68;;;;;;;;;;5047302;28;20190;-76
2022/01/24 15:52:12;;;;;;;6.05;5.45;;;;;;;;;;5056107;28;20642;-77
2022/01/24 15:54:42;;;;;;;7.82;6.40;;;;;;;;;;5056733;28;20213;-76
2022/01/24 15:59:50;;;;;;;5.97;4.90;;;;;;;;;;5053260;28;20191;-76
2022/01/24 16:02:19;;;;;;;6.32;5.82;;;;;;;;;;5049802;28;20205;-81
2022/01/24 16:04:46;;;;;;;6.03;5.53;;;;;;;;;;5054758;28;20238;-78
2022/01/24 16:07:13;;;;;;;5.72;5.20;;;;;;;;;;5048977;28;20246;-75
2022/01/24 16:09:41;;;;;;;5.80;5.40;;;;;;;;;;5044292;28;20190;-77
2022/01/24 16:12:08;;;;;;;6.35;5.65;;;;;;;;;;5045741;28;20570;-75
2022/01/24 16:14:35;;;;;;;8.05;6.63;;;;;;;;;;5040784;28;20624;-76
2022/01/24 16:17:03;;;;;;;6.82;6.13;;;;;;;;;;5035223;28;20652;-75
2022/01/24 16:19:34;;;;;;;10.40;6.20;;;;;;;;;;5032169;28;20269;-77
2022/01/24 16:22:14;;;;;;;9.88;6.47;;;;;;;;;;5018694;28;20187;-77
2022/01/24 16:27:22;;;;;;;10.38;6.75;;;;;;;;;;5032576;28;20198;-77
2022/01/24 16:29:51;;;;;;;6.78;6.18;;;;;;;;;;5037163;28;20225;-76
2022/01/24 16:32:18;;;;;;;5.88;5.38;;;;;;;;;;5034999;28;20198;-76
2022/01/24 16:34:46;;;;;;;10.93;6.72;;;;;;;;;;5032286;28;20342;-78
2022/01/24 16:37:14;;;;;;;7.50;6.70;;;;;;;;;;5036411;28;20198;-78
2022/01/24 16:39:42;;;;;;;7.35;6.65;;;;;;;;;;5040950;28;20191;-75
2022/01/24 16:42:13;;;;;;;7.45;6.72;;;;;;;;;;5032656;28;20649;-77
2022/01/24 16:44:56;;;;;;;9.65;6.85;;;;;;;;;;5044448;28;20218;-76
2022/01/24 16:47:25;;;;;;;9.27;7.47;;;;;;;;;;5020161;28;20194;-77